Time;durP1;ratioP1;P1;durP2;ratioP2;P2;SDS_P1;SDS_P2;PMS_P1;PMS_P2;Temp;Humidity;BMP_temperature;BMP_pressure;BME280_temperature;BME280_humidity;BME280_pressure;Samples;Min_cycle;Max_cycle;Signal;HPM_P1;HPM_P2
2023/08/20 00:03:58;;;;;;;0.73;0.73;;;;;;;22.21;60.80;97022.25;10487878;28;20056;-29
2023/08/20 00:08:59;;;;;;;0.80;0.80;;;;;;;22.20;60.99;97010.38;10494575;28;20043;-29
2023/08/20 00:14:00;;;;;;;0.98;0.98;;;;;;;22.23;60.93;97025.63;10487214;28;20049;-29
2023/08/20 00:19:04;;;;;;;1.13;1.03;;;;;;;22.24;61.00;97021.41;10489751;28;20456;-29
2023/08/20 00:24:07;;;;;;;0.80;0.70;;;;;;;22.23;61.19;97023.09;10493483;28;20032;-29
2023/08/20 00:29:08;;;;;;;0.80;0.80;;;;;;;22.23;60.98;97024.81;10487124;28;20028;-30
2023/08/20 00:34:10;;;;;;;0.88;0.88;;;;;;;22.23;60.48;97019.72;10491773;28;20119;-29
2023/08/20 00:39:10;;;;;;;2.05;0.95;;;;;;;22.22;60.95;97021.41;10488314;28;20032;-30
2023/08/20 00:44:11;;;;;;;0.73;0.73;;;;;;;22.20;60.80;97015.47;10475129;28;20086;-30
2023/08/20 00:49:12;;;;;;;0.77;0.77;;;;;;;22.23;60.90;97020.53;10492822;28;20036;-31
2023/08/20 00:54:13;;;;;;;0.80;0.80;;;;;;;22.23;60.98;97010.34;10489827;28;20036;-30
2023/08/20 00:59:13;;;;;;;1.02;0.80;;;;;;;22.21;60.79;97001.84;10487465;28;20091;-30
2023/08/20 01:04:13;;;;;;;0.90;0.90;;;;;;;22.21;60.90;96994.22;10491654;28;20032;-29
2023/08/20 01:09:34;;;;;;;0.80;0.80;;;;;;;22.24;60.82;97004.38;10485105;28;20021;-29
2023/08/20 01:14:34;;;;;;;0.90;0.80;;;;;;;22.24;60.44;97012.00;10491716;28;20031;-30
2023/08/20 01:19:35;;;;;;;0.80;0.80;;;;;;;22.24;60.77;97012.00;10483893;28;20024;-30
2023/08/20 01:24:57;;;;;;;0.80;0.80;;;;;;;22.23;60.90;97010.34;10485221;28;20063;-30
2023/08/20 01:30:00;;;;;;;0.70;0.70;;;;;;;22.23;60.89;97014.59;10490191;28;20056;-29
2023/08/20 01:35:00;;;;;;;0.90;0.90;;;;;;;22.18;60.95;97017.22;10488799;28;20033;-29
2023/08/20 01:40:01;;;;;;;0.68;0.68;;;;;;;22.23;60.76;97028.19;10491257;28;20029;-29
2023/08/20 01:45:01;;;;;;;0.83;0.80;;;;;;;22.23;60.73;97030.75;10488989;28;20036;-30
2023/08/20 01:50:03;;;;;;;0.70;0.70;;;;;;;22.24;60.87;97045.19;10489655;28;20368;-30
2023/08/20 01:55:04;;;;;;;0.70;0.70;;;;;;;22.23;60.95;97058.78;10491127;28;20029;-30
2023/08/20 02:00:08;;;;;;;0.93;0.80;;;;;;;22.23;60.84;97066.44;10483075;28;20536;-29
2023/08/20 02:05:14;;;;;;;0.75;0.75;;;;;;;22.24;60.78;97077.50;10491007;28;20150;-29
2023/08/20 02:10:14;;;;;;;0.80;0.80;;;;;;;22.24;60.65;97090.25;10488469;28;20528;-29
2023/08/20 02:15:15;;;;;;;0.67;0.67;;;;;;;22.18;60.74;97080.97;10495689;28;20044;-31
2023/08/20 02:20:15;;;;;;;0.70;0.70;;;;;;;22.23;60.65;97091.97;10496311;28;20666;-29
2023/08/20 02:25:15;;;;;;;0.80;0.80;;;;;;;22.23;60.84;97075.81;10491060;28;20426;-30
2023/08/20 02:30:16;;;;;;;1.50;1.40;;;;;;;22.22;60.67;97074.97;10498166;28;20369;-30
2023/08/20 02:35:17;;;;;;;0.70;0.70;;;;;;;22.21;60.77;97073.28;10488860;28;20327;-29
2023/08/20 02:40:17;;;;;;;0.93;0.82;;;;;;;22.21;60.86;97070.72;10490666;28;20486;-30
2023/08/20 02:45:18;;;;;;;0.90;0.90;;;;;;;22.25;60.73;97069.84;10497202;28;20516;-29
2023/08/20 02:50:18;;;;;;;0.75;0.75;;;;;;;22.23;60.70;97050.31;10491401;28;20381;-29
2023/08/20 02:55:18;;;;;;;0.70;0.70;;;;;;;22.23;60.69;97051.16;10497223;28;20041;-30
2023/08/20 03:00:19;;;;;;;0.52;0.52;;;;;;;22.23;60.58;97051.16;10491043;28;20036;-29
2023/08/20 03:05:19;;;;;;;0.67;0.67;;;;;;;22.23;60.76;97035.00;10492819;28;20032;-30
2023/08/20 03:10:20;;;;;;;0.93;0.93;;;;;;;22.23;60.65;97025.63;10496030;28;20312;-29
2023/08/20 03:15:20;;;;;;;0.80;0.80;;;;;;;22.22;60.63;97030.78;10494431;28;20043;-29
2023/08/20 03:20:21;;;;;;;0.83;0.83;;;;;;;22.25;60.74;97029.03;10494867;28;20032;-30
2023/08/20 03:25:21;;;;;;;0.82;0.82;;;;;;;22.23;60.61;97023.09;10488437;28;20090;-29
2023/08/20 03:30:22;;;;;;;0.93;0.93;;;;;;;22.25;60.82;97026.50;10494530;28;20090;-30
2023/08/20 03:35:22;;;;;;;1.00;0.90;;;;;;;22.25;60.73;97023.94;10491193;28;20506;-30
2023/08/20 03:40:22;;;;;;;0.87;0.87;;;;;;;22.25;60.81;97023.09;10487703;28;20032;-30
2023/08/20 03:45:23;;;;;;;0.90;0.90;;;;;;;22.25;60.95;97012.88;10486874;28;20043;-29
2023/08/20 03:50:23;;;;;;;1.23;1.13;;;;;;;22.27;60.68;97013.69;10489183;28;20779;-30
2023/08/20 03:55:24;;;;;;;0.93;0.93;;;;;;;22.26;60.78;97006.91;10493698;28;20299;-30
2023/08/20 04:00:26;;;;;;;0.82;0.80;;;;;;;22.27;60.66;97006.91;10488529;28;20573;-30
2023/08/20 04:05:26;;;;;;;0.77;0.77;;;;;;;22.26;60.63;97009.47;10485097;28;20064;-29
2023/08/20 04:10:27;;;;;;;0.95;0.88;;;;;;;22.25;60.66;97013.75;10490956;28;20028;-29
2023/08/20 04:15:28;;;;;;;0.73;0.73;;;;;;;22.12;60.78;97001.94;10481806;28;20141;-30
2023/08/20 04:20:28;;;;;;;0.80;0.80;;;;;;;22.22;60.68;97011.19;10486072;28;20033;-32
2023/08/20 04:25:28;;;;;;;1.00;0.90;;;;;;;22.29;60.75;97029.81;10489970;28;20490;-31
2023/08/20 04:30:29;;;;;;;0.80;0.80;;;;;;;22.27;60.74;97024.75;10492195;28;20469;-28
2023/08/20 04:35:30;;;;;;;0.80;0.80;;;;;;;22.28;60.69;97029.00;10490017;28;20040;-30
2023/08/20 04:40:30;;;;;;;1.20;1.10;;;;;;;22.27;60.96;97027.31;10491518;28;20045;-29
2023/08/20 04:45:31;;;;;;;0.90;0.80;;;;;;;22.29;60.73;97032.38;10490283;28;20032;-30
2023/08/20 04:50:31;;;;;;;1.27;1.00;;;;;;;22.28;60.61;97043.44;10491033;28;20078;-30
2023/08/20 04:55:31;;;;;;;0.90;0.90;;;;;;;22.28;60.77;97054.50;10489967;28;20131;-30
2023/08/20 05:00:32;;;;;;;1.67;0.90;;;;;;;22.27;60.74;97060.47;10489920;28;20443;-30
2023/08/20 05:05:41;;;;;;;0.70;0.70;;;;;;;22.26;60.73;97066.44;10491106;28;20318;-30
2023/08/20 05:10:42;;;;;;;0.77;0.77;;;;;;;22.27;60.70;97065.56;10482885;28;20052;-30
2023/08/20 05:15:45;;;;;;;0.80;0.73;;;;;;;22.25;60.64;97074.97;10491888;28;20128;-29
2023/08/20 05:20:46;;;;;;;0.80;0.80;;;;;;;22.20;60.65;97066.50;10489102;28;20044;-30
2023/08/20 05:25:46;;;;;;;0.63;0.63;;;;;;;22.25;60.61;97069.84;10487526;28;20137;-29
2023/08/20 05:31:05;;;;;;;0.75;0.75;;;;;;;22.26;60.63;97068.13;10490214;28;20036;-29
2023/08/20 05:36:06;;;;;;;0.70;0.70;;;;;;;22.25;60.61;97077.50;10488803;28;20033;-30
2023/08/20 05:41:07;;;;;;;0.95;0.82;;;;;;;22.24;60.66;97083.44;10489914;28;20040;-30
2023/08/20 05:46:07;;;;;;;0.68;0.68;;;;;;;22.25;60.69;97100.47;10489226;28;20052;-29
2023/08/20 05:51:08;;;;;;;0.57;0.57;;;;;;;22.24;60.58;97103.84;10491972;28;20107;-30
2023/08/20 05:56:11;;;;;;;1.00;1.00;;;;;;;22.26;60.56;97107.25;10498579;28;20123;-29
2023/08/20 06:01:12;;;;;;;0.70;0.70;;;;;;;22.26;60.60;97111.50;10490116;28;20062;-29
2023/08/20 06:06:13;;;;;;;0.60;0.60;;;;;;;22.27;60.51;97114.03;10495181;28;20056;-29
2023/08/20 06:11:13;;;;;;;1.00;1.00;;;;;;;22.26;60.64;97122.56;10495492;28;20060;-30
2023/08/20 06:16:13;;;;;;;0.77;0.77;;;;;;;22.25;60.59;97108.13;10495423;28;20047;-31
2023/08/20 06:21:14;;;;;;;0.90;0.80;;;;;;;22.27;60.66;97108.94;10495458;28;20033;-29
2023/08/20 06:26:14;;;;;;;1.00;1.00;;;;;;;22.27;60.59;97111.50;10494340;28;20057;-29
2023/08/20 06:31:14;;;;;;;1.17;1.07;;;;;;;22.28;60.63;97115.72;10495030;28;20445;-31
2023/08/20 06:36:15;;;;;;;0.57;0.57;;;;;;;22.28;60.67;97125.06;10491435;28;20387;-30
2023/08/20 06:41:15;;;;;;;1.07;0.97;;;;;;;22.27;60.59;97126.81;10497667;28;20486;-29
2023/08/20 06:46:15;;;;;;;0.73;0.73;;;;;;;22.26;60.75;97132.75;10490315;28;20429;-30
2023/08/20 06:51:21;;;;;;;0.70;0.70;;;;;;;22.26;60.48;97127.66;10497276;28;20040;-29
2023/08/20 06:56:21;;;;;;;0.63;0.63;;;;;;;22.26;60.61;97131.91;10490077;28;20042;-29
2023/08/20 07:01:21;;;;;;;0.60;0.60;;;;;;;22.27;60.49;97134.47;10495651;28;20041;-29
2023/08/20 07:06:22;;;;;;;1.37;1.00;;;;;;;22.26;60.57;97134.47;10493717;28;20102;-30
2023/08/20 07:11:22;;;;;;;0.70;0.70;;;;;;;22.26;60.65;97132.75;10496750;28;20513;-30
2023/08/20 07:16:22;;;;;;;0.65;0.65;;;;;;;22.27;60.50;97144.66;10489260;28;20038;-29
2023/08/20 07:21:23;;;;;;;1.10;1.00;;;;;;;22.27;60.57;97149.75;10494255;28;20037;-30
2023/08/20 07:26:25;;;;;;;1.00;1.00;;;;;;;22.28;60.62;97148.91;10495986;28;20036;-30
2023/08/20 07:31:28;;;;;;;1.13;1.02;;;;;;;22.27;60.57;97144.66;10493753;28;20402;-30
2023/08/20 07:36:28;;;;;;;0.85;0.85;;;;;;;22.27;60.56;97152.31;10495887;28;20043;-29
2023/08/20 07:41:30;;;;;;;1.13;1.00;;;;;;;22.27;60.58;97152.31;10488941;28;20321;-29
2023/08/20 07:46:30;;;;;;;0.70;0.70;;;;;;;22.28;60.42;97156.56;10494133;28;20040;-29
2023/08/20 07:51:30;;;;;;;0.90;0.90;;;;;;;22.30;60.61;97154.81;10493205;28;20032;-30
2023/08/20 07:56:31;;;;;;;0.90;0.90;;;;;;;22.29;60.64;97147.19;10486960;28;20418;-29
2023/08/20 08:01:31;;;;;;;1.67;0.90;;;;;;;22.29;60.59;97153.13;10494702;28;20457;-29
2023/08/20 08:06:31;;;;;;;2.30;0.90;;;;;;;22.30;60.69;97154.81;10491557;28;20451;-30
2023/08/20 08:11:32;;;;;;;2.57;0.97;;;;;;;22.30;60.68;97159.94;10494223;28;20032;-30
2023/08/20 08:16:32;;;;;;;1.53;1.43;;;;;;;22.29;60.62;97160.78;10487574;28;20036;-30
2023/08/20 08:21:32;;;;;;;1.00;0.77;;;;;;;22.30;60.70;97164.19;10484756;28;20037;-30
2023/08/20 08:26:35;;;;;;;1.00;0.90;;;;;;;22.31;60.76;97153.13;10492039;28;20029;-30
2023/08/20 08:31:35;;;;;;;0.95;0.95;;;;;;;22.31;61.00;97159.06;10487990;28;20059;-29
2023/08/20 08:36:36;;;;;;;1.90;0.80;;;;;;;22.30;60.81;97149.72;10493413;28;20396;-29
2023/08/20 08:41:39;;;;;;;0.80;0.80;;;;;;;22.33;60.73;97159.06;10484439;28;20119;-29
2023/08/20 08:46:39;;;;;;;0.88;0.88;;;;;;;22.32;60.76;97150.56;10492948;28;20352;-30
2023/08/20 08:51:44;;;;;;;0.88;0.88;;;;;;;22.31;60.96;97153.97;10487183;28;20081;-29
2023/08/20 08:56:44;;;;;;;1.48;0.90;;;;;;;22.32;60.85;97153.09;10492232;28;20033;-30
2023/08/20 09:01:45;;;;;;;1.33;1.23;;;;;;;22.34;60.96;97153.09;10484416;28;20047;-29
2023/08/20 09:06:50;;;;;;;1.20;1.10;;;;;;;22.32;60.84;97158.19;10490493;28;20253;-29
2023/08/20 09:11:50;;;;;;;0.80;0.80;;;;;;;22.33;60.76;97153.97;10483915;28;20028;-29
2023/08/20 09:16:58;;;;;;;0.93;0.93;;;;;;;22.31;60.81;97145.47;10475412;28;20457;-29
2023/08/20 09:21:59;;;;;;;0.80;0.80;;;;;;;22.34;60.77;97150.53;10483484;28;20320;-30
2023/08/20 09:26:59;;;;;;;1.63;1.03;;;;;;;22.35;60.81;97147.13;10486583;28;20036;-30
2023/08/20 09:32:02;;;;;;;1.13;1.02;;;;;;;22.35;60.96;97157.34;10491290;28;20286;-30
2023/08/20 09:37:02;;;;;;;1.25;1.15;;;;;;;22.34;60.85;97156.50;10486259;28;20036;-29
2023/08/20 09:42:05;;;;;;;1.23;0.90;;;;;;;22.32;60.91;97147.16;10490992;28;20037;-28
2023/08/20 09:47:16;;;;;;;1.27;1.17;;;;;;;22.35;60.86;97160.75;10488598;28;20115;-31
2023/08/20 09:52:25;;;;;;;0.95;0.90;;;;;;;22.36;60.89;97157.34;10490912;28;20037;-30
2023/08/20 09:57:39;;;;;;;0.88;0.88;;;;;;;22.37;60.76;97160.72;10487174;28;20058;-30
2023/08/20 10:02:41;;;;;;;1.10;1.00;;;;;;;22.37;61.15;97148.81;10486967;28;20520;-30
2023/08/20 10:07:42;;;;;;;1.00;0.90;;;;;;;22.37;61.21;97145.41;10488955;28;20020;-29
2023/08/20 10:12:45;;;;;;;1.50;1.02;;;;;;;22.38;61.04;97149.66;10488504;28;20078;-30
2023/08/20 10:17:46;;;;;;;1.00;0.90;;;;;;;22.36;61.21;97143.72;10486854;28;20045;-29
2023/08/20 10:22:50;;;;;;;0.90;0.90;;;;;;;22.37;61.59;97148.81;10489038;28;20028;-30
2023/08/20 10:27:51;;;;;;;0.85;0.85;;;;;;;22.39;61.13;97143.72;10485155;28;20064;-30
2023/08/20 10:32:58;;;;;;;1.77;1.15;;;;;;;22.38;60.96;97142.00;10489636;28;20107;-30
2023/08/20 10:38:12;;;;;;;1.40;1.20;;;;;;;22.37;60.79;97141.16;10482769;28;20036;-30
2023/08/20 10:43:25;;;;;;;1.42;0.73;;;;;;;22.37;61.02;97136.06;10497736;28;20036;-29
2023/08/20 10:48:26;;;;;;;0.80;0.80;;;;;;;22.37;61.14;97128.41;10489795;28;20032;-29
2023/08/20 10:53:27;;;;;;;0.90;0.90;;;;;;;22.37;61.17;97125.00;10497068;28;20054;-31
2023/08/20 10:58:30;;;;;;;0.90;0.90;;;;;;;22.38;61.16;97125.00;10489768;28;20517;-30
2023/08/20 11:03:33;;;;;;;0.80;0.80;;;;;;;22.40;61.27;97122.44;10496638;28;20286;-30
2023/08/20 11:08:34;;;;;;;0.93;0.93;;;;;;;22.40;61.38;97125.81;10492953;28;20303;-30
2023/08/20 11:13:35;;;;;;;1.08;1.00;;;;;;;22.39;61.27;97119.03;10495501;28;20039;-30
2023/08/20 11:18:36;;;;;;;0.80;0.80;;;;;;;22.36;61.39;97108.84;10493092;28;20107;-29
2023/08/20 11:23:38;;;;;;;2.42;0.90;;;;;;;22.41;61.69;97117.34;10491161;28;20115;-29
2023/08/20 11:28:45;;;;;;;1.33;1.23;;;;;;;22.42;61.81;97111.41;10492919;28;20028;-30
2023/08/20 11:33:45;;;;;;;1.33;1.23;;;;;;;22.42;61.67;97108.84;10493185;28;20032;-30
2023/08/20 11:38:53;;;;;;;1.60;1.50;;;;;;;22.42;61.67;97098.63;10495431;28;20050;-29
2023/08/20 11:43:53;;;;;;;1.40;1.30;;;;;;;22.42;61.97;97103.75;10488622;28;20387;-29
2023/08/20 11:49:06;;;;;;;1.23;1.13;;;;;;;22.43;62.05;97097.78;10488195;28;20029;-28
2023/08/20 11:54:17;;;;;;;1.00;1.00;;;;;;;22.44;61.74;97101.16;10487036;28;20282;-30
2023/08/20 11:59:19;;;;;;;0.90;0.90;;;;;;;22.42;61.98;97096.09;10486627;28;20071;-29
2023/08/20 12:04:24;;;;;;;1.38;1.27;;;;;;;22.41;61.54;97081.59;10493338;28;20032;-30
2023/08/20 12:09:25;;;;;;;0.90;0.90;;;;;;;22.44;61.66;97089.25;10488834;28;20156;-29
2023/08/20 12:14:25;;;;;;;1.20;1.10;;;;;;;22.45;61.87;97087.53;10489233;28;20032;-30
2023/08/20 12:19:26;;;;;;;1.37;1.27;;;;;;;22.44;61.82;97079.06;10493858;28;20051;-30
2023/08/20 12:24:26;;;;;;;1.58;1.33;;;;;;;22.44;61.97;97081.59;10490634;28;20306;-29
2023/08/20 12:29:27;;;;;;;1.43;1.33;;;;;;;22.46;62.00;97079.88;10493420;28;20407;-30
2023/08/20 12:34:29;;;;;;;1.50;1.40;;;;;;;22.46;62.00;97077.31;10485988;28;20298;-30
2023/08/20 12:39:29;;;;;;;1.00;1.00;;;;;;;22.45;62.21;97073.09;10490639;28;20033;-30
2023/08/20 12:44:29;;;;;;;1.00;1.00;;;;;;;22.47;61.85;97065.41;10492904;28;20058;-30
2023/08/20 12:49:30;;;;;;;1.00;1.00;;;;;;;22.47;62.03;97070.53;10484058;28;20039;-29
2023/08/20 12:54:30;;;;;;;1.10;1.10;;;;;;;22.47;62.36;97071.34;10492447;28;20060;-30
2023/08/20 12:59:30;;;;;;;0.90;0.90;;;;;;;22.47;62.30;97066.25;10485757;28;20082;-29
2023/08/20 13:04:31;;;;;;;1.10;1.10;;;;;;;22.44;62.57;97055.22;10484032;28;20036;-29
2023/08/20 13:09:32;;;;;;;1.20;1.10;;;;;;;22.48;62.49;97062.84;10492377;28;20020;-30
2023/08/20 13:14:32;;;;;;;1.38;1.27;;;;;;;22.48;62.38;97062.84;10488307;28;20036;-29
2023/08/20 13:19:33;;;;;;;0.95;0.95;;;;;;;22.48;62.49;97052.63;10491968;28;20558;-30
2023/08/20 13:24:34;;;;;;;1.23;1.13;;;;;;;22.50;62.53;97065.38;10479872;28;20029;-29
2023/08/20 13:29:34;;;;;;;1.20;1.10;;;;;;;22.47;62.63;97061.16;10491687;28;20028;-30
2023/08/20 13:34:34;;;;;;;0.90;0.90;;;;;;;22.48;62.40;97060.28;10485269;28;20527;-29
2023/08/20 13:39:35;;;;;;;1.30;1.20;;;;;;;22.48;62.61;97062.84;10491507;28;20295;-30
2023/08/20 13:44:35;;;;;;;1.00;1.00;;;;;;;22.49;62.38;97059.41;10483824;28;20297;-30
2023/08/20 13:49:35;;;;;;;1.20;1.10;;;;;;;22.50;62.86;97063.66;10491921;28;20028;-29
2023/08/20 13:54:36;;;;;;;1.40;1.30;;;;;;;22.50;62.55;97062.81;10489083;28;20028;-29
2023/08/20 13:59:37;;;;;;;1.00;0.90;;;;;;;22.51;62.71;97062.81;10491153;28;20505;-30
2023/08/20 14:04:37;;;;;;;1.30;1.20;;;;;;;22.49;62.27;97059.41;10486667;28;20092;-30
2023/08/20 14:09:39;;;;;;;1.30;1.20;;;;;;;22.49;62.79;97064.53;10494156;28;20025;-30
2023/08/20 14:14:40;;;;;;;1.00;0.90;;;;;;;22.50;62.28;97068.75;10496141;28;20332;-29
2023/08/20 14:19:40;;;;;;;1.30;1.17;;;;;;;22.43;62.75;97054.41;10495733;28;20086;-29
2023/08/20 14:24:40;;;;;;;1.40;1.30;;;;;;;22.48;62.84;97067.94;10493894;28;20344;-30
2023/08/20 14:29:41;;;;;;;1.23;1.13;;;;;;;22.50;62.87;97066.22;10494675;28;20035;-29
2023/08/20 14:34:42;;;;;;;1.23;1.13;;;;;;;22.49;62.73;97059.41;10493538;28;20085;-30
2023/08/20 14:39:42;;;;;;;1.20;1.10;;;;;;;22.51;62.59;97061.97;10491239;28;20032;-29
2023/08/20 14:44:42;;;;;;;0.95;0.95;;;;;;;22.51;62.65;97059.41;10497737;28;20479;-30
2023/08/20 14:49:43;;;;;;;1.37;1.27;;;;;;;22.51;62.54;97062.81;10490057;28;20390;-30
2023/08/20 14:54:43;;;;;;;1.10;1.00;;;;;;;22.50;62.30;97061.09;10497424;28;20027;-30
2023/08/20 14:59:44;;;;;;;1.47;1.37;;;;;;;22.50;62.45;97050.06;10488885;28;20298;-30
2023/08/20 15:04:44;;;;;;;1.40;1.15;;;;;;;22.51;62.55;97042.41;10497089;28;20426;-30
2023/08/20 15:09:44;;;;;;;1.30;1.20;;;;;;;22.50;62.34;97038.13;10495426;28;20498;-29
2023/08/20 15:14:45;;;;;;;1.30;1.20;;;;;;;22.51;62.45;97042.41;10496503;28;20035;-28
2023/08/20 15:19:45;;;;;;;0.90;0.90;;;;;;;22.52;62.49;97040.69;10489941;28;20032;-29
2023/08/20 15:24:46;;;;;;;0.90;0.90;;;;;;;22.51;62.51;97033.91;10491096;28;20060;-30
2023/08/20 15:29:46;;;;;;;1.30;1.20;;;;;;;22.52;62.84;97041.53;10496095;28;20016;-29
2023/08/20 15:34:47;;;;;;;1.10;1.00;;;;;;;22.51;62.54;97037.31;10489996;28;20032;-29
2023/08/20 15:39:47;;;;;;;1.37;1.27;;;;;;;22.52;62.41;97039.00;10490998;28;20029;-30
2023/08/20 15:44:48;;;;;;;0.90;0.90;;;;;;;22.52;62.49;97033.88;10490939;28;20035;-29
2023/08/20 15:49:48;;;;;;;1.40;1.30;;;;;;;22.52;62.43;97033.03;10493093;28;20020;-30
2023/08/20 15:54:49;;;;;;;1.33;1.23;;;;;;;22.53;62.56;97034.72;10495700;28;20029;-29
2023/08/20 15:59:49;;;;;;;1.00;1.00;;;;;;;22.52;62.54;97036.44;10490910;28;20040;-30
2023/08/20 16:04:49;;;;;;;1.10;1.03;;;;;;;22.53;62.46;97034.72;10494981;28;20089;-29
2023/08/20 16:09:50;;;;;;;1.30;1.20;;;;;;;22.52;62.49;97044.09;10487786;28;20039;-30
2023/08/20 16:14:50;;;;;;;1.23;1.13;;;;;;;22.53;62.39;97034.72;10492612;28;20286;-30
2023/08/20 16:19:51;;;;;;;1.10;1.10;;;;;;;22.53;62.57;97039.81;10493896;28;20542;-30
2023/08/20 16:24:51;;;;;;;1.30;1.20;;;;;;;22.53;62.60;97035.56;10492307;28;20032;-29
2023/08/20 16:29:51;;;;;;;1.13;1.02;;;;;;;22.49;62.37;97031.34;10493672;28;20447;-29
2023/08/20 16:34:52;;;;;;;1.33;1.23;;;;;;;22.53;62.67;97040.66;10489435;28;20043;-29
2023/08/20 16:39:52;;;;;;;1.17;1.10;;;;;;;22.53;62.55;97035.56;10493331;28;20097;-29
2023/08/20 16:44:53;;;;;;;1.05;1.02;;;;;;;22.54;62.54;97046.59;10484870;28;20450;-29
2023/08/20 16:49:53;;;;;;;1.35;1.25;;;;;;;22.54;62.58;97044.91;10493276;28;20025;-30
2023/08/20 16:54:54;;;;;;;1.33;1.23;;;;;;;22.53;62.36;97045.78;10491702;28;20033;-29
2023/08/20 16:59:55;;;;;;;1.20;1.10;;;;;;;22.53;62.42;97043.22;10488052;28;20302;-30
2023/08/20 17:04:55;;;;;;;1.23;1.13;;;;;;;22.53;62.23;97048.31;10492348;28;20039;-30
2023/08/20 17:09:56;;;;;;;1.23;1.10;;;;;;;22.54;62.25;97054.25;10488679;28;20029;-29
2023/08/20 17:14:57;;;;;;;1.10;1.00;;;;;;;22.42;62.60;97039.09;10492263;28;20290;-29
2023/08/20 17:19:57;;;;;;;0.83;0.83;;;;;;;22.53;62.25;97050.03;10485891;28;20475;-30
2023/08/20 17:24:57;;;;;;;1.27;1.17;;;;;;;22.53;62.25;97055.97;10488196;28;20556;-30
2023/08/20 17:29:58;;;;;;;1.20;1.10;;;;;;;22.54;62.18;97057.69;10487426;28;20043;-30
2023/08/20 17:34:58;;;;;;;1.35;1.25;;;;;;;22.53;62.08;97050.88;10488241;28;20094;-30
2023/08/20 17:39:59;;;;;;;1.20;1.10;;;;;;;22.53;62.03;97058.53;10491585;28;20041;-29
2023/08/20 17:44:59;;;;;;;1.20;1.10;;;;;;;22.50;62.12;97055.16;10481584;28;20040;-30
2023/08/20 17:49:59;;;;;;;1.10;1.10;;;;;;;22.53;62.03;97066.19;10491257;28;20028;-30
2023/08/20 17:55:00;;;;;;;1.20;1.10;;;;;;;22.54;61.98;97067.88;10489449;28;20043;-30
2023/08/20 18:00:00;;;;;;;1.40;1.30;;;;;;;22.54;62.00;97067.88;10491411;28;20029;-29
2023/08/20 18:05:01;;;;;;;0.80;0.80;;;;;;;22.52;61.87;97069.63;10485973;28;20391;-29
2023/08/20 18:10:02;;;;;;;0.98;0.98;;;;;;;22.53;61.72;97076.41;10486209;28;20366;-29
2023/08/20 18:15:03;;;;;;;1.33;1.23;;;;;;;22.49;61.87;97073.91;10486300;28;20036;-29
2023/08/20 18:20:03;;;;;;;1.10;1.10;;;;;;;22.53;61.80;97081.50;10488264;28;20407;-29
2023/08/20 18:25:04;;;;;;;1.08;1.08;;;;;;;22.52;61.73;97082.38;10490407;28;20028;-29
2023/08/20 18:30:08;;;;;;;1.17;1.08;;;;;;;22.51;61.79;97088.34;10487274;28;20469;-30
2023/08/20 18:35:09;;;;;;;1.08;1.00;;;;;;;22.53;61.75;97090.84;10490514;28;20437;-29
2023/08/20 18:40:10;;;;;;;1.50;1.05;;;;;;;22.53;61.76;97089.16;10485016;28;20037;-29
2023/08/20 18:45:10;;;;;;;0.90;0.90;;;;;;;22.52;61.72;97100.22;10481444;28;20486;-30
2023/08/20 18:50:11;;;;;;;0.80;0.80;;;;;;;22.53;61.66;97099.38;10490080;28;20040;-30
2023/08/20 18:55:11;;;;;;;0.80;0.80;;;;;;;22.52;61.65;97107.88;10482926;28;20040;-30
2023/08/20 19:00:12;;;;;;;1.20;1.10;;;;;;;22.51;61.53;97118.09;10497084;28;20058;-28
2023/08/20 19:05:12;;;;;;;1.02;0.90;;;;;;;22.51;61.27;97121.50;10494343;28;20752;-29
2023/08/20 19:10:16;;;;;;;1.07;0.97;;;;;;;22.52;61.44;97138.50;10495545;28;20043;-30
2023/08/20 19:15:16;;;;;;;0.73;0.73;;;;;;;22.52;61.45;97143.63;10493300;28;20282;-29
2023/08/20 19:20:17;;;;;;;0.80;0.80;;;;;;;22.52;61.75;97148.72;10494339;28;20036;-29
2023/08/20 19:25:17;;;;;;;1.23;1.17;;;;;;;22.51;61.57;97157.25;10496160;28;20032;-29
2023/08/20 19:30:17;;;;;;;1.10;1.00;;;;;;;22.51;61.35;97149.59;10490462;28;20051;-30
2023/08/20 19:35:18;;;;;;;1.20;1.10;;;;;;;22.52;61.28;97156.38;10496264;28;20286;-30
2023/08/20 19:40:18;;;;;;;1.03;1.03;;;;;;;22.54;61.58;97161.44;10489275;28;20298;-29
2023/08/20 19:45:19;;;;;;;0.90;0.90;;;;;;;22.54;61.67;97158.91;10496191;28;20041;-30
2023/08/20 19:50:19;;;;;;;1.20;1.10;;;;;;;22.53;61.61;97170.81;10486788;28;20289;-29
2023/08/20 19:55:19;;;;;;;1.27;1.17;;;;;;;22.53;61.53;97167.41;10495466;28;20029;-30
2023/08/20 20:00:20;;;;;;;0.93;0.93;;;;;;;22.53;61.53;97181.03;10492702;28;20509;-29
2023/08/20 20:05:21;;;;;;;1.10;1.00;;;;;;;22.51;61.46;97185.31;10491845;28;20365;-30
2023/08/20 20:10:21;;;;;;;1.55;1.08;;;;;;;22.40;61.55;97166.63;10490863;28;20044;-29
2023/08/20 20:15:21;;;;;;;0.93;0.93;;;;;;;22.51;61.49;97180.22;10491110;28;20083;-29
2023/08/20 20:20:22;;;;;;;0.70;0.70;;;;;;;22.53;61.50;97188.69;10491178;28;20047;-30
2023/08/20 20:25:24;;;;;;;1.30;1.10;;;;;;;22.53;61.46;97186.13;10492730;28;20307;-29
2023/08/20 20:30:24;;;;;;;0.80;0.80;;;;;;;22.48;61.47;97177.66;10493598;28;20428;-29
2023/08/20 20:35:25;;;;;;;0.90;0.90;;;;;;;22.54;61.51;97186.97;10485392;28;20033;-30
2023/08/20 20:40:25;;;;;;;1.00;1.00;;;;;;;22.53;61.46;97185.28;10493014;28;20058;-30
2023/08/20 20:45:25;;;;;;;1.07;0.97;;;;;;;22.53;60.96;97182.72;10491163;28;20036;-29
2023/08/20 20:50:26;;;;;;;0.77;0.77;;;;;;;22.52;61.39;97186.16;10492697;28;20278;-30
2023/08/20 20:55:26;;;;;;;1.17;1.07;;;;;;;22.54;61.51;97192.94;10487353;28;20032;-30
2023/08/20 21:00:26;;;;;;;0.90;0.90;;;;;;;22.53;61.46;97191.25;10492430;28;20039;-29
2023/08/20 21:05:27;;;;;;;0.87;0.87;;;;;;;22.53;61.36;97191.25;10490296;28;20411;-30
2023/08/20 21:10:27;;;;;;;0.80;0.80;;;;;;;22.54;61.52;97197.19;10490741;28;20035;-28
2023/08/20 21:15:28;;;;;;;0.90;0.90;;;;;;;22.51;61.42;97197.22;10490044;28;20449;-29
2023/08/20 21:20:28;;;;;;;0.83;0.83;;;;;;;22.51;61.35;97195.53;10486148;28;20055;-29
2023/08/20 21:25:29;;;;;;;0.80;0.80;;;;;;;22.55;61.35;97211.66;10492177;28;20432;-29
2023/08/20 21:30:29;;;;;;;0.80;0.80;;;;;;;22.54;61.34;97215.91;10488115;28;20052;-30
2023/08/20 21:35:30;;;;;;;0.87;0.87;;;;;;;22.54;61.36;97210.78;10488462;28;20037;-30
2023/08/20 21:40:30;;;;;;;0.90;0.90;;;;;;;22.54;61.54;97213.34;10488615;28;20493;-29
2023/08/20 21:45:30;;;;;;;0.80;0.80;;;;;;;22.56;61.40;97218.44;10487912;28;20039;-29
2023/08/20 21:50:31;;;;;;;1.00;1.00;;;;;;;22.54;61.49;97217.59;10491663;28;20025;-30
2023/08/20 21:55:31;;;;;;;0.73;0.73;;;;;;;22.54;61.65;97208.25;10489861;28;20375;-30
2023/08/20 22:00:31;;;;;;;0.70;0.70;;;;;;;22.55;61.51;97215.03;10491151;28;20351;-30
2023/08/20 22:05:32;;;;;;;1.17;1.08;;;;;;;22.54;61.35;97213.34;10488256;28;20290;-31
2023/08/20 22:10:33;;;;;;;0.90;0.90;;;;;;;22.56;61.38;97208.25;10487615;28;20029;-29
2023/08/20 22:15:33;;;;;;;0.90;0.90;;;;;;;22.53;61.36;97211.66;10491259;28;20078;-30
2023/08/20 22:20:33;;;;;;;0.77;0.77;;;;;;;22.50;61.45;97211.66;10487375;28;20043;-30
2023/08/20 22:25:34;;;;;;;0.90;0.90;;;;;;;22.55;61.46;97212.50;10490715;28;20028;-29
2023/08/20 22:30:36;;;;;;;1.00;0.90;;;;;;;22.55;61.43;97211.66;10489136;28;20291;-30
2023/08/20 22:35:37;;;;;;;1.20;1.10;;;;;;;22.54;61.17;97215.91;10498050;28;20037;-30
2023/08/20 22:40:39;;;;;;;1.40;1.30;;;;;;;22.54;61.42;97205.69;10491602;28;20032;-29
2023/08/20 22:45:39;;;;;;;0.80;0.80;;;;;;;22.55;62.09;97212.50;10491992;28;20029;-30
2023/08/20 22:50:40;;;;;;;0.70;0.70;;;;;;;22.52;61.25;97197.22;10495511;28;20028;-29
2023/08/20 22:55:40;;;;;;;1.10;1.00;;;;;;;22.54;61.36;97207.38;10493671;28;20375;-29
2023/08/20 23:00:41;;;;;;;1.30;0.83;;;;;;;22.53;61.36;97206.56;10497171;28;20087;-30
2023/08/20 23:05:41;;;;;;;0.73;0.73;;;;;;;22.56;61.41;97205.69;10491207;28;20032;-29
2023/08/20 23:10:41;;;;;;;1.30;1.07;;;;;;;22.55;61.48;97206.56;10493638;28;20033;-30
2023/08/20 23:15:42;;;;;;;0.87;0.87;;;;;;;22.56;61.65;97203.97;10494582;28;20036;-28
2023/08/20 23:20:42;;;;;;;0.97;0.90;;;;;;;22.56;61.37;97206.53;10492047;28;20295;-29